Time;durP1;ratioP1;P1;durP2;ratioP2;P2;SDS_P1;SDS_P2;PMS_P1;PMS_P2;Temp;Humidity;BMP_temperature;BMP_pressure;BME280_temperature;BME280_humidity;BME280_pressure;Samples;Min_cycle;Max_cycle;Signal;HPM_P1;HPM_P2
2023/08/19 07:07:50;;;;;;;9.18;3.38;;;;;;;26.36;60.78;96613.31;2102426;27;20579;-64
2023/08/19 07:10:11;;;;;;;14.70;4.43;;;;;;;26.53;60.77;96611.47;2124635;27;20584;-64
2023/08/19 07:11:17;;;;;;;8.30;2.60;;;;;;;26.62;60.16;96618.47;2121404;27;20245;-64
2023/08/19 07:12:19;;;;;;;11.70;3.58;;;;;;;26.77;59.56;96617.84;2115613;28;20206;-64
2023/08/19 07:13:20;;;;;;;7.75;2.95;;;;;;;26.76;58.68;96616.97;2114944;28;20266;-64
2023/08/19 07:14:24;;;;;;;8.68;3.05;;;;;;;26.86;56.97;96622.97;2115296;28;20194;-64
2023/08/19 07:15:25;;;;;;;8.07;3.00;;;;;;;26.93;57.33;96622.28;2111374;28;20252;-64
2023/08/19 07:16:31;;;;;;;7.65;3.22;;;;;;;27.12;59.74;96621.91;2114939;27;20872;-64
2023/08/19 07:17:34;;;;;;;10.90;3.15;;;;;;;27.89;58.03;96623.03;2116003;28;20321;-65
2023/08/19 07:18:39;;;;;;;9.77;2.83;;;;;;;27.94;56.47;96617.94;2117961;27;20288;-65
2023/08/19 07:19:42;;;;;;;7.32;3.10;;;;;;;28.00;57.65;96619.94;2123452;27;20722;-66
2023/08/19 07:20:43;;;;;;;7.28;3.10;;;;;;;28.37;54.57;96620.16;2124677;27;20830;-65
2023/08/19 07:21:46;;;;;;;15.38;3.60;;;;;;;28.29;54.63;96626.44;2125489;27;20220;-64
2023/08/19 07:22:51;;;;;;;12.18;5.78;;;;;;;28.09;55.35;96618.06;2120468;28;20194;-66
2023/08/19 07:23:58;;;;;;;15.13;5.47;;;;;;;28.20;53.97;96622.13;2121357;27;20590;-65
2023/08/19 07:25:00;;;;;;;21.63;8.37;;;;;;;28.37;55.37;96622.00;2116179;28;20485;-65
2023/08/19 07:26:03;;;;;;;8.70;3.97;;;;;;;28.47;53.56;96620.75;2113619;28;20430;-65
2023/08/19 07:27:05;;;;;;;12.70;4.93;;;;;;;28.84;53.73;96619.06;2113647;28;20909;-65
2023/08/19 07:28:09;;;;;;;11.67;3.20;;;;;;;29.02;53.47;96617.03;2112609;28;20423;-64
2023/08/19 07:29:11;;;;;;;14.70;3.80;;;;;;;28.88;53.48;96624.91;2113225;28;20427;-64
2023/08/19 07:30:13;;;;;;;6.27;2.80;;;;;;;28.94;50.44;96615.28;2113320;28;20454;-64
2023/08/19 07:31:16;;;;;;;4.77;2.03;;;;;;;29.08;51.38;96621.66;2113786;27;20434;-64
2023/08/19 07:32:19;;;;;;;10.43;3.10;;;;;;;28.77;52.06;96618.13;2114997;28;20426;-64
2023/08/19 07:33:21;;;;;;;9.30;3.00;;;;;;;29.30;51.63;96614.53;2115847;28;20426;-64
2023/08/19 07:34:23;;;;;;;7.50;3.47;;;;;;;29.32;51.46;96624.06;2117837;28;20422;-64
2023/08/19 07:35:24;;;;;;;5.10;2.77;;;;;;;29.35;51.17;96622.88;2119351;28;21003;-64
2023/08/19 07:36:27;;;;;;;8.60;2.83;;;;;;;29.57;50.44;96625.59;2114748;28;21172;-64
2023/08/19 07:37:29;;;;;;;5.20;2.83;;;;;;;29.79;50.15;96627.31;2115871;28;21216;-65
2023/08/19 07:38:31;;;;;;;8.30;2.47;;;;;;;29.95;50.15;96630.81;2117194;28;20825;-64
2023/08/19 07:39:32;;;;;;;8.93;3.10;;;;;;;30.44;49.61;96626.50;2113547;28;20423;-65
2023/08/19 07:40:34;;;;;;;14.40;3.30;;;;;;;30.40;49.60;96636.00;2115000;28;20419;-65
2023/08/19 07:41:35;;;;;;;4.90;2.70;;;;;;;30.12;48.52;96624.16;2115528;28;20442;-64
2023/08/19 07:42:37;;;;;;;6.20;2.50;;;;;;;30.49;48.96;96634.00;2114903;28;20924;-65
2023/08/19 07:43:39;;;;;;;9.03;3.13;;;;;;;30.30;49.18;96637.13;2115800;27;20439;-63
2023/08/19 07:44:40;;;;;;;7.43;2.70;;;;;;;30.05;49.76;96636.69;2116155;28;20993;-64
2023/08/19 07:45:42;;;;;;;5.23;3.20;;;;;;;29.98;50.39;96633.13;2117580;28;20475;-64
2023/08/19 07:46:45;;;;;;;11.77;6.27;;;;;;;30.11;49.53;96638.63;2116920;27;20451;-64
2023/08/19 07:47:47;;;;;;;5.83;3.80;;;;;;;29.79;50.17;96648.00;2119701;28;20427;-64
2023/08/19 07:48:48;;;;;;;6.13;2.57;;;;;;;30.05;49.97;96642.06;2111413;28;20430;-64
2023/08/19 07:49:50;;;;;;;5.17;2.47;;;;;;;29.90;50.31;96641.31;2115551;28;20542;-64
2023/08/19 07:50:52;;;;;;;7.73;2.40;;;;;;;30.18;50.15;96644.06;2115920;28;20422;-65
2023/08/19 07:51:53;;;;;;;6.60;2.60;;;;;;;30.05;49.49;96644.78;2114910;27;20446;-64
2023/08/19 07:52:55;;;;;;;5.13;2.70;;;;;;;30.16;49.70;96645.28;2115171;28;21047;-65
2023/08/19 07:53:56;;;;;;;9.13;2.77;;;;;;;30.46;49.02;96641.44;2115162;28;20418;-64
2023/08/19 07:54:57;;;;;;;5.10;2.67;;;;;;;30.17;50.66;96642.41;2113636;28;21242;-64
2023/08/19 07:55:59;;;;;;;7.03;3.07;;;;;;;30.35;49.71;96647.34;2113710;28;20434;-65
2023/08/19 07:57:01;;;;;;;10.20;2.53;;;;;;;30.43;49.22;96647.19;2116768;28;20417;-65
2023/08/19 07:58:02;;;;;;;10.27;3.00;;;;;;;30.46;49.80;96646.81;2115836;28;20471;-65
2023/08/19 07:59:04;;;;;;;12.57;3.20;;;;;;;30.43;49.33;96646.38;2115605;27;20490;-65
2023/08/19 08:00:06;;;;;;;13.70;3.50;;;;;;;30.37;49.39;96648.00;2115378;28;20961;-65
2023/08/19 08:01:10;;;;;;;6.90;3.33;;;;;;;30.27;49.04;96647.47;2114718;27;20434;-65
2023/08/19 08:02:11;;;;;;;9.93;2.87;;;;;;;30.61;48.74;96651.31;2111876;28;20467;-64
2023/08/19 08:03:13;;;;;;;8.67;2.90;;;;;;;30.42;48.26;96653.63;2112846;28;21221;-64
2023/08/19 08:04:14;;;;;;;5.00;2.40;;;;;;;30.55;48.91;96654.78;2113494;28;20781;-65
2023/08/19 08:05:16;;;;;;;9.10;2.43;;;;;;;30.42;49.54;96648.25;2114152;28;20852;-64
2023/08/19 08:06:18;;;;;;;11.00;2.80;;;;;;;29.92;48.61;96655.41;2115795;28;20452;-65
2023/08/19 08:07:20;;;;;;;6.23;2.93;;;;;;;30.21;48.27;96653.63;2115722;28;20411;-65
2023/08/19 08:08:22;;;;;;;17.33;3.77;;;;;;;30.12;48.80;96655.63;2111869;28;20968;-65
2023/08/19 08:09:23;;;;;;;11.30;3.50;;;;;;;30.00;48.37;96649.91;2112721;28;20532;-65
2023/08/19 08:10:25;;;;;;;7.97;2.53;;;;;;;29.72;49.54;96650.59;2115683;28;21099;-65
2023/08/19 08:11:26;;;;;;;9.40;2.93;;;;;;;29.83;49.24;96646.59;2115305;27;20457;-64
2023/08/19 08:12:30;;;;;;;7.50;2.93;;;;;;;29.86;50.81;96648.06;2115535;28;20430;-65
2023/08/19 08:13:32;;;;;;;14.47;2.80;;;;;;;30.10;49.86;96650.41;2111837;28;20430;-64
2023/08/19 08:14:33;;;;;;;6.80;2.80;;;;;;;30.25;49.31;96650.34;2115670;28;20473;-64
2023/08/19 08:15:35;;;;;;;10.63;2.50;;;;;;;30.23;50.01;96648.88;2115428;28;20433;-64
2023/08/19 08:16:37;;;;;;;7.87;2.43;;;;;;;30.45;49.76;96649.72;2113822;28;20550;-64
2023/08/19 08:17:39;;;;;;;5.47;3.00;;;;;;;30.30;50.82;96652.47;2113143;28;20453;-65
2023/08/19 08:18:40;;;;;;;5.83;2.20;;;;;;;30.39;49.97;96647.78;2113968;28;20805;-64
2023/08/19 08:19:42;;;;;;;11.63;2.53;;;;;;;30.36;51.03;96651.72;2117711;28;20790;-64
2023/08/19 08:20:44;;;;;;;6.30;2.80;;;;;;;30.10;51.22;96650.41;2114157;28;20457;-65
2023/08/19 08:21:45;;;;;;;8.67;3.00;;;;;;;30.33;50.09;96643.19;2109530;28;20460;-63
2023/08/19 08:22:47;;;;;;;6.40;3.73;;;;;;;30.20;50.22;96644.72;2109126;28;20522;-65
2023/08/19 08:23:49;;;;;;;13.23;2.93;;;;;;;29.93;50.12;96647.16;2108750;28;20466;-64
2023/08/19 08:24:51;;;;;;;11.90;3.57;;;;;;;29.97;50.32;96652.97;2109503;28;20452;-64
2023/08/19 08:25:52;;;;;;;5.43;3.17;;;;;;;30.13;50.07;96641.97;2110119;28;20427;-64
2023/08/19 08:26:54;;;;;;;6.67;2.90;;;;;;;30.41;49.00;96643.03;2109305;28;20436;-64
2023/08/19 08:27:55;;;;;;;10.77;3.27;;;;;;;30.51;48.87;96648.94;2109741;28;20423;-64
2023/08/19 08:28:57;;;;;;;8.83;3.10;;;;;;;30.42;50.28;96645.53;2106158;28;21109;-64
2023/08/19 08:29:59;;;;;;;10.63;3.43;;;;;;;30.29;48.72;96640.84;2105908;28;20424;-65
2023/08/19 08:31:01;;;;;;;9.93;3.10;;;;;;;30.42;48.72;96639.31;2106094;28;20443;-65
2023/08/19 08:32:02;;;;;;;6.40;3.13;;;;;;;30.07;49.11;96641.91;2105885;28;20532;-65
2023/08/19 08:33:04;;;;;;;9.20;2.83;;;;;;;30.11;49.91;96632.41;2106105;28;20428;-65
2023/08/19 08:34:06;;;;;;;10.27;2.60;;;;;;;30.44;50.34;96639.97;2105895;28;20809;-64
2023/08/19 08:35:08;;;;;;;6.23;2.70;;;;;;;30.16;48.92;96639.91;2108571;28;20882;-64
2023/08/19 08:36:09;;;;;;;15.00;4.40;;;;;;;30.53;49.32;96638.81;2108672;27;20423;-64
2023/08/19 08:37:10;;;;;;;6.67;3.10;;;;;;;30.59;49.39;96648.00;2105999;28;20485;-65
2023/08/19 08:38:12;;;;;;;8.60;3.03;;;;;;;30.66;47.97;96645.34;2107000;28;20476;-65
2023/08/19 08:39:14;;;;;;;10.33;3.00;;;;;;;30.98;48.69;96643.06;2105856;28;20953;-64
2023/08/19 08:40:15;;;;;;;11.43;3.37;;;;;;;31.23;48.19;96646.13;2105981;28;20460;-64
2023/08/19 08:41:18;;;;;;;13.07;3.10;;;;;;;31.55;48.62;96649.19;2109654;28;20447;-65
2023/08/19 08:42:21;;;;;;;9.30;3.10;;;;;;;31.53;47.77;96652.09;2108458;28;20495;-64
2023/08/19 08:43:24;;;;;;;8.30;3.33;;;;;;;31.58;47.22;96646.09;2105967;28;20435;-64
2023/08/19 08:44:26;;;;;;;7.43;2.83;;;;;;;31.27;47.93;96650.94;2108620;28;20427;-64
2023/08/19 08:45:31;;;;;;;7.60;3.17;;;;;;;31.20;48.21;96649.25;2109177;28;20437;-64
2023/08/19 08:46:34;;;;;;;7.50;3.20;;;;;;;31.33;47.58;96652.00;2106803;28;20508;-64
2023/08/19 08:47:37;;;;;;;7.00;2.67;;;;;;;31.27;47.52;96650.94;2109905;28;20439;-64
2023/08/19 08:48:41;;;;;;;10.03;3.47;;;;;;;31.43;47.23;96652.47;2109574;28;20422;-64
2023/08/19 08:49:44;;;;;;;13.17;3.23;;;;;;;31.21;46.57;96649.03;2107923;28;20522;-64
2023/08/19 08:50:46;;;;;;;6.73;2.13;;;;;;;31.45;46.60;96648.72;2105895;28;20452;-64
2023/08/19 08:51:48;;;;;;;4.67;2.13;;;;;;;31.46;46.80;96647.69;2105950;28;20451;-65
2023/08/19 08:52:50;;;;;;;4.80;2.33;;;;;;;31.56;46.74;96653.56;2109746;28;20760;-64
2023/08/19 08:53:52;;;;;;;8.20;3.00;;;;;;;31.41;47.54;96659.94;2109516;28;20468;-65
2023/08/19 08:54:55;;;;;;;6.53;3.17;;;;;;;31.60;47.01;96657.50;2109520;28;20482;-64
2023/08/19 08:55:59;;;;;;;9.43;2.70;;;;;;;31.52;46.59;96658.50;2110966;28;20416;-64
2023/08/19 08:57:02;;;;;;;9.53;3.27;;;;;;;31.92;47.78;96658.69;2113151;28;20841;-65
2023/08/19 08:58:03;;;;;;;4.67;2.77;;;;;;;32.10;46.69;96656.44;2109371;28;20477;-65
2023/08/19 08:59:05;;;;;;;17.13;3.00;;;;;;;32.52;46.55;96655.25;2109617;28;20472;-65
2023/08/19 09:00:08;;;;;;;8.93;2.77;;;;;;;32.80;46.24;96662.34;2109536;28;20419;-65
2023/08/19 09:01:10;;;;;;;9.67;3.07;;;;;;;32.92;45.73;96659.00;2109555;27;20419;-64
2023/08/19 09:02:13;;;;;;;9.83;2.43;;;;;;;32.65;46.44;96654.41;2109939;28;20439;-65
2023/08/19 09:03:19;;;;;;;10.17;2.70;;;;;;;32.53;45.93;96656.94;2109321;28;20905;-65
2023/08/19 09:04:23;;;;;;;8.43;2.70;;;;;;;32.51;46.33;96655.47;2109706;28;20566;-65
2023/08/19 09:05:29;;;;;;;11.13;3.30;;;;;;;32.13;46.20;96656.03;2108226;28;20439;-64
2023/08/19 09:06:32;;;;;;;9.80;2.80;;;;;;;31.95;46.30;96646.66;2107295;28;20520;-64
2023/08/19 09:07:43;;;;;;;9.83;3.20;;;;;;;31.71;46.71;96648.03;2109268;28;20946;-65
2023/08/19 09:08:52;;;;;;;10.37;2.93;;;;;;;32.39;45.94;96648.00;2110237;28;20423;-65
2023/08/19 09:09:58;;;;;;;7.10;2.73;;;;;;;32.90;46.07;96648.41;2109184;28;21237;-64
2023/08/19 09:11:02;;;;;;;9.67;3.20;;;;;;;32.72;45.98;96654.41;2108914;28;20488;-64
2023/08/19 09:12:08;;;;;;;6.13;2.40;;;;;;;32.46;45.68;96652.56;2109939;28;20420;-64
2023/08/19 09:13:15;;;;;;;6.93;2.63;;;;;;;32.59;44.83;96654.44;2111331;28;20422;-65
2023/08/19 09:14:19;;;;;;;9.93;2.43;;;;;;;32.15;45.91;96644.00;2109223;28;20467;-64
2023/08/19 09:15:22;;;;;;;11.20;3.40;;;;;;;32.59;45.09;96649.84;2109400;28;20504;-64
2023/08/19 09:16:23;;;;;;;11.47;5.43;;;;;;;32.47;45.25;96649.66;2107767;28;20455;-65
2023/08/19 09:17:25;;;;;;;47.63;36.03;;;;;;;32.38;45.28;96648.19;2108926;28;20427;-65
2023/08/19 09:18:27;;;;;;;30.27;19.13;;;;;;;32.38;44.90;96651.72;2110191;28;20502;-66
2023/08/19 09:19:28;;;;;;;17.33;9.50;;;;;;;32.75;45.44;96651.34;2110072;28;20427;-65
2023/08/19 09:20:32;;;;;;;10.60;4.70;;;;;;;32.74;44.98;96652.38;2109854;28;20431;-64
2023/08/19 09:21:34;;;;;;;10.77;3.73;;;;;;;32.53;45.13;96656.94;2108832;27;20503;-64
2023/08/19 09:22:38;;;;;;;6.43;2.90;;;;;;;32.77;45.39;96661.94;2108666;28;20427;-65
2023/08/19 09:23:40;;;;;;;6.60;3.20;;;;;;;32.65;45.51;96649.03;2108855;28;20511;-65
2023/08/19 09:24:41;;;;;;;5.90;2.33;;;;;;;32.28;45.18;96663.97;2107376;28;20426;-64
2023/08/19 09:25:44;;;;;;;9.00;2.57;;;;;;;32.59;45.28;96657.94;2109110;28;20430;-64
2023/08/19 09:26:45;;;;;;;7.57;3.40;;;;;;;32.68;45.49;96666.69;2109169;28;20458;-65
2023/08/19 09:27:51;;;;;;;4.87;2.23;;;;;;;32.86;45.08;96666.94;2105661;28;20432;-64
2023/08/19 09:28:57;;;;;;;8.07;2.80;;;;;;;33.25;45.42;96663.53;2107467;28;20434;-64
2023/08/19 09:29:59;;;;;;;7.90;3.10;;;;;;;33.63;44.81;96669.03;2108983;28;20508;-65
2023/08/19 09:31:16;;;;;;;9.67;2.90;;;;;;;33.70;44.29;96677.13;2104854;28;20466;-64
2023/08/19 09:32:29;;;;;;;4.93;2.80;;;;;;;33.89;42.97;96674.56;2107537;28;20420;-65
2023/08/19 09:33:31;;;;;;;5.90;2.33;;;;;;;33.75;43.86;96677.31;2107478;28;20527;-64
2023/08/19 09:34:32;;;;;;;7.60;2.37;;;;;;;33.80;43.31;96680.22;2110088;28;20430;-64
2023/08/19 09:35:36;;;;;;;8.20;2.90;;;;;;;33.78;43.06;96673.34;2111080;28;20423;-64
2023/08/19 09:36:58;;;;;;;10.80;2.67;;;;;;;33.87;43.66;96672.06;2109424;28;20477;-65
2023/08/19 09:37:59;;;;;;;6.73;2.80;;;;;;;33.93;44.46;96668.50;2108974;28;20476;-64
2023/08/19 09:39:01;;;;;;;8.47;3.40;;;;;;;34.22;43.13;96676.25;2106924;28;20890;-64
2023/08/19 09:40:08;;;;;;;6.17;3.23;;;;;;;34.71;43.11;96668.41;2105539;28;20424;-64
2023/08/19 09:41:12;;;;;;;5.23;2.30;;;;;;;34.89;41.24;96670.38;2108971;28;20416;-64
2023/08/19 09:42:14;;;;;;;5.97;2.50;;;;;;;34.42;40.84;96666.13;2105432;28;20523;-65
2023/08/19 09:43:16;;;;;;;23.17;3.10;;;;;;;34.75;40.90;96673.16;2105783;28;20423;-65
2023/08/19 09:44:17;;;;;;;7.53;2.70;;;;;;;34.85;39.80;96669.97;2109599;28;20450;-65
2023/08/19 09:45:21;;;;;;;7.50;2.40;;;;;;;34.50;40.36;96665.03;2110880;28;20772;-65
2023/08/19 09:46:33;;;;;;;4.97;2.43;;;;;;;34.78;40.29;96667.31;2109235;28;20451;-65
2023/08/19 09:47:48;;;;;;;10.37;2.57;;;;;;;35.23;40.26;96671.69;2107822;28;20458;-65
2023/08/19 09:48:52;;;;;;;15.00;2.30;;;;;;;35.42;39.74;96660.88;2108922;28;20426;-65
2023/08/19 09:49:56;;;;;;;5.40;2.30;;;;;;;35.43;41.46;96666.06;2109126;28;20510;-65
2023/08/19 09:50:58;;;;;;;4.40;2.00;;;;;;;35.35;40.86;96665.50;2109364;28;20465;-65
2023/08/19 09:51:59;;;;;;;6.50;2.27;;;;;;;35.37;41.39;96666.16;2109536;28;20473;-65
2023/08/19 09:53:01;;;;;;;8.27;2.10;;;;;;;35.46;41.18;96667.50;2105530;28;20431;-65
2023/08/19 09:54:10;;;;;;;5.53;2.57;;;;;;;35.96;40.19;96667.31;2106311;28;20466;-66
2023/08/19 09:55:21;;;;;;;7.10;2.30;;;;;;;35.79;40.03;96679.84;2109981;28;20428;-65
2023/08/19 09:56:26;;;;;;;7.87;2.40;;;;;;;36.02;39.03;96670.16;2107903;28;20451;-65
2023/08/19 09:57:32;;;;;;;9.40;2.57;;;;;;;34.92;40.49;96664.47;2108069;28;20766;-65
2023/08/19 09:58:34;;;;;;;7.50;2.70;;;;;;;35.33;39.49;96671.16;2109083;28;20423;-65
2023/08/19 09:59:36;;;;;;;15.23;3.03;;;;;;;35.78;39.05;96665.44;2108572;28;20435;-65
2023/08/19 10:00:38;;;;;;;11.00;2.50;;;;;;;36.09;39.02;96660.84;2110296;28;20636;-65
2023/08/19 10:01:40;;;;;;;5.93;2.37;;;;;;;36.16;38.95;96673.50;2109175;28;20540;-65
2023/08/19 10:02:42;;;;;;;9.33;2.57;;;;;;;36.68;38.78;96673.75;2105421;28;20746;-65
2023/08/19 10:03:43;;;;;;;12.63;2.57;;;;;;;36.96;37.92;96666.03;2105505;28;20431;-65
2023/08/19 10:04:45;;;;;;;4.70;2.30;;;;;;;37.31;37.53;96667.91;2109426;28;20443;-64
2023/08/19 10:05:52;;;;;;;7.93;2.27;;;;;;;37.70;35.66;96670.88;2105376;28;20522;-65
2023/08/19 10:06:55;;;;;;;7.10;2.80;;;;;;;37.64;36.36;96666.44;2104989;28;20464;-65
2023/08/19 10:08:03;;;;;;;8.00;2.30;;;;;;;37.83;37.53;96670.66;2105321;28;20462;-64
2023/08/19 10:09:08;;;;;;;9.30;3.00;;;;;;;36.96;36.19;96674.19;2109095;28;20423;-65
2023/08/19 10:10:11;;;;;;;11.90;2.90;;;;;;;36.00;37.17;96670.41;2109879;28;20426;-65
2023/08/19 10:11:15;;;;;;;6.10;2.93;;;;;;;36.38;37.46;96668.41;2107805;28;20545;-65
2023/08/19 10:12:18;;;;;;;8.27;2.50;;;;;;;36.58;37.98;96668.94;2109904;28;20431;-65
2023/08/19 10:13:21;;;;;;;4.30;2.30;;;;;;;36.44;38.48;96676.47;2109914;28;20428;-65
2023/08/19 10:14:32;;;;;;;8.10;2.33;;;;;;;36.39;39.59;96670.91;2109295;28;20454;-65
2023/08/19 10:15:37;;;;;;;7.07;2.50;;;;;;;37.00;38.06;96678.91;2105297;28;20427;-64
2023/08/19 10:16:44;;;;;;;11.23;2.33;;;;;;;37.71;36.74;96670.66;2105471;28;20499;-64
2023/08/19 10:17:50;;;;;;;8.27;3.00;;;;;;;37.64;36.42;96669.97;2107209;28;20424;-64
2023/08/19 10:18:53;;;;;;;6.43;2.20;;;;;;;37.44;35.85;96670.38;2109618;28;20431;-65
2023/08/19 10:20:02;;;;;;;5.23;2.17;;;;;;;36.06;37.34;96666.75;2105214;28;20500;-65
2023/08/19 10:21:07;;;;;;;7.70;2.70;;;;;;;36.36;37.34;96670.53;2108886;28;20894;-65
2023/08/19 10:22:10;;;;;;;12.30;2.80;;;;;;;36.69;37.64;96675.44;2107839;28;20415;-64
2023/08/19 10:23:14;;;;;;;6.53;2.17;;;;;;;37.13;37.80;96669.69;2107545;28;20427;-65
2023/08/19 10:24:21;;;;;;;9.53;2.40;;;;;;;37.36;38.14;96671.56;2104131;28;20967;-64
2023/08/19 10:25:24;;;;;;;7.80;2.67;;;;;;;37.37;38.42;96672.38;2104537;28;20430;-65
2023/08/19 10:26:26;;;;;;;6.63;2.30;;;;;;;37.67;38.26;96674.91;2107457;28;20563;-65
2023/08/19 10:27:27;;;;;;;3.83;2.40;;;;;;;37.41;35.39;96676.31;2105148;28;20435;-64
2023/08/19 10:28:29;;;;;;;10.03;2.50;;;;;;;36.88;36.44;96675.38;2106389;28;20420;-65
2023/08/19 10:29:30;;;;;;;5.10;2.17;;;;;;;37.08;37.69;96677.72;2109557;28;20419;-65
2023/08/19 10:30:32;;;;;;;4.70;2.30;;;;;;;37.86;36.97;96678.31;2105050;28;20424;-65
2023/08/19 10:31:35;;;;;;;12.90;2.20;;;;;;;37.35;37.29;96667.19;2106416;28;20480;-65
2023/08/19 10:32:37;;;;;;;5.33;2.63;;;;;;;37.29;37.78;96676.28;2109045;28;21321;-65
2023/08/19 10:33:39;;;;;;;4.40;2.37;;;;;;;37.34;36.87;96673.69;2109216;28;20480;-64
2023/08/19 10:34:45;;;;;;;4.87;2.20;;;;;;;37.64;36.39;96674.59;2108075;28;20438;-65
2023/08/19 10:36:00;;;;;;;6.63;2.40;;;;;;;37.58;36.14;96670.94;2107358;28;20431;-64
2023/08/19 10:37:10;;;;;;;4.60;2.13;;;;;;;37.07;36.69;96668.72;2115366;27;20524;-65
2023/08/19 10:38:13;;;;;;;10.03;2.80;;;;;;;37.25;37.65;96675.91;2115756;28;20485;-65
2023/08/19 10:39:15;;;;;;;5.77;2.40;;;;;;;38.25;36.99;96674.13;2113620;28;21017;-65
2023/08/19 10:40:21;;;;;;;12.70;2.90;;;;;;;38.19;36.55;96663.13;2114376;27;20432;-65
2023/08/19 10:41:36;;;;;;;10.63;6.90;;;;;;;38.81;36.23;96671.59;2116774;27;20492;-65
2023/08/19 10:42:38;;;;;;;11.70;4.27;;;;;;;39.18;36.09;96671.84;2118468;27;20772;-66
2023/08/19 10:44:07;;;;;;;16.03;10.97;;;;;;;39.26;35.88;96662.44;2117076;27;20469;-66
2023/08/19 10:45:16;;;;;;;17.10;11.53;;;;;;;39.46;35.88;96672.78;2112997;27;20987;-65
2023/08/19 10:46:18;;;;;;;6.50;4.23;;;;;;;39.47;35.80;96676.38;2115206;27;20460;-65
2023/08/19 10:47:20;;;;;;;11.83;2.97;;;;;;;39.40;35.83;96675.72;2114848;28;20490;-65
2023/08/19 10:48:31;;;;;;;10.97;2.63;;;;;;;39.13;36.36;96668.22;2117108;27;20427;-65
2023/08/19 10:49:34;;;;;;;4.60;2.63;;;;;;;39.42;35.88;96674.38;2115639;27;20423;-65
2023/08/19 10:50:37;;;;;;;4.30;2.60;;;;;;;39.04;35.69;96665.91;2111937;28;20458;-65
2023/08/19 10:51:51;;;;;;;9.27;2.37;;;;;;;39.01;35.80;96660.97;2112247;28;20474;-65
2023/08/19 10:53:00;;;;;;;4.60;2.37;;;;;;;39.46;35.72;96674.72;2113620;28;20429;-65
2023/08/19 10:54:08;;;;;;;5.00;2.30;;;;;;;39.52;35.01;96676.44;2115870;28;20430;-64
2023/08/19 10:55:17;;;;;;;9.83;3.00;;;;;;;39.68;35.65;96670.09;2118046;27;20413;-66
2023/08/19 10:56:20;;;;;;;10.50;2.67;;;;;;;39.18;36.01;96671.84;2116778;27;20458;-66
2023/08/19 10:57:24;;;;;;;7.07;2.33;;;;;;;38.53;35.83;96665.94;2117712;27;20502;-66
2023/08/19 10:58:25;;;;;;;4.90;1.90;;;;;;;39.03;35.92;96677.09;2117027;27;20433;-66
2023/08/19 10:59:27;;;;;;;9.30;2.27;;;;;;;39.33;35.53;96676.72;2117770;28;20454;-66
2023/08/19 11:00:33;;;;;;;6.53;2.73;;;;;;;39.91;35.30;96673.66;2116358;27;20435;-66
2023/08/19 11:01:34;;;;;;;5.33;2.27;;;;;;;39.74;34.45;96675.63;2115790;28;20463;-66
2023/08/19 11:02:36;;;;;;;8.53;2.57;;;;;;;39.12;34.05;96670.16;2116673;28;21091;-67
2023/08/19 11:03:38;;;;;;;4.97;2.03;;;;;;;38.62;34.61;96673.72;2117122;27;20426;-66
2023/08/19 11:04:43;;;;;;;8.90;2.10;;;;;;;38.12;35.13;96676.09;2117560;27;20433;-65
2023/08/19 11:05:51;;;;;;;7.67;2.13;;;;;;;38.13;36.16;96664.13;2108962;28;20542;-65
2023/08/19 11:06:53;;;;;;;4.27;2.03;;;;;;;38.10;36.40;96675.50;2107909;28;21175;-66
2023/08/19 11:07:55;;;;;;;3.83;1.70;;;;;;;37.64;37.12;96674.59;2117374;28;20912;-66
2023/08/19 11:09:00;;;;;;;7.90;2.40;;;;;;;38.14;36.51;96673.13;2116870;28;20426;-66
2023/08/19 11:10:01;;;;;;;5.63;2.20;;;;;;;38.33;35.77;96673.75;2116460;28;20622;-66
2023/08/19 11:11:04;;;;;;;4.07;2.30;;;;;;;38.46;35.59;96675.34;2112650;28;20427;-66
2023/08/19 11:12:05;;;;;;;3.57;2.27;;;;;;;38.03;36.21;96672.94;2115569;28;20601;-66
2023/08/19 11:13:07;;;;;;;3.37;2.10;;;;;;;37.64;36.32;96672.69;2116953;28;20422;-65
2023/08/19 11:14:15;;;;;;;11.13;2.57;;;;;;;37.86;36.44;96674.78;2117096;28;20983;-66
2023/08/19 11:15:26;;;;;;;7.70;2.53;;;;;;;37.72;36.47;96666.03;2115802;28;20422;-65
2023/08/19 11:16:27;;;;;;;5.60;2.73;;;;;;;37.72;36.15;96664.13;2117340;28;20454;-66
2023/08/19 11:17:31;;;;;;;5.40;2.10;;;;;;;37.73;36.58;96664.97;2117173;28;20419;-66
2023/08/19 11:18:38;;;;;;;14.03;2.57;;;;;;;37.79;37.42;96672.19;2117235;28;20478;-66
2023/08/19 11:19:40;;;;;;;6.30;2.17;;;;;;;38.37;36.23;96662.13;2117049;28;20803;-66
2023/08/19 11:20:42;;;;;;;5.90;2.23;;;;;;;38.25;36.47;96664.06;2116420;28;20972;-67
2023/08/19 11:21:44;;;;;;;4.43;2.20;;;;;;;38.65;36.47;96667.75;2105645;28;20455;-66
2023/08/19 11:22:48;;;;;;;7.53;2.57;;;;;;;38.80;36.76;96664.47;2107620;28;20521;-66
2023/08/19 11:23:50;;;;;;;3.50;2.20;;;;;;;38.60;36.90;96664.94;2118594;28;20922;-66
2023/08/19 11:24:51;;;;;;;5.67;2.27;;;;;;;38.94;36.96;96671.22;2117598;28;20429;-66
2023/08/19 11:25:54;;;;;;;15.83;2.70;;;;;;;38.98;36.60;96666.94;2117083;28;20422;-66
2023/08/19 11:26:55;;;;;;;6.73;2.30;;;;;;;39.11;36.12;96671.22;2118265;28;20492;-66
2023/08/19 11:27:57;;;;;;;9.00;2.30;;;;;;;38.88;36.33;96666.78;2115305;28;20422;-67
2023/08/19 11:29:02;;;;;;;9.93;2.30;;;;;;;37.99;35.31;96660.88;2110823;28;20475;-66
2023/08/19 11:30:06;;;;;;;12.03;2.93;;;;;;;38.44;35.51;96672.88;2110843;28;20423;-66
2023/08/19 11:31:08;;;;;;;6.13;2.33;;;;;;;38.64;35.51;96666.94;2114651;28;20521;-66
2023/08/19 11:32:09;;;;;;;8.73;2.40;;;;;;;38.57;36.01;96665.44;2116973;28;20462;-72
2023/08/19 11:33:11;;;;;;;7.03;2.60;;;;;;;38.65;36.52;96663.13;2117394;28;20478;-71
2023/08/19 11:34:13;;;;;;;5.43;2.07;;;;;;;38.99;36.67;96662.31;2116618;28;20435;-72
2023/08/19 11:35:15;;;;;;;4.93;2.30;;;;;;;39.31;36.27;96675.34;2116440;28;21303;-72
2023/08/19 11:36:16;;;;;;;7.07;2.53;;;;;;;39.69;36.04;96679.13;2118320;28;20498;-71
2023/08/19 11:37:18;;;;;;;8.93;2.07;;;;;;;39.75;35.09;96672.63;2113242;28;20932;-72
2023/08/19 11:38:19;;;;;;;5.53;1.93;;;;;;;39.57;34.75;96672.91;2113185;28;20418;-72
2023/08/19 11:39:21;;;;;;;4.60;2.53;;;;;;;39.89;33.33;96675.00;2115307;28;20422;-72
2023/08/19 11:40:31;;;;;;;5.47;1.87;;;;;;;39.77;34.54;96675.09;2109621;28;20426;-72
2023/08/19 11:41:34;;;;;;;3.40;1.90;;;;;;;39.64;36.17;96679.91;2108753;28;20500;-72
2023/08/19 11:42:35;;;;;;;4.70;2.50;;;;;;;38.77;36.45;96681.31;2117726;28;20810;-72
2023/08/19 11:43:46;;;;;;;6.40;2.10;;;;;;;38.34;36.27;96672.69;2117750;28;20565;-72
2023/08/19 11:44:48;;;;;;;6.10;2.07;;;;;;;38.18;36.65;96669.69;2118013;28;20477;-71
2023/08/19 11:45:50;;;;;;;5.90;2.17;;;;;;;38.99;36.05;96676.75;2114992;28;20769;-73
2023/08/19 11:46:56;;;;;;;12.80;2.10;;;;;;;39.35;35.25;96674.59;2117400;28;20466;-72
2023/08/19 11:47:57;;;;;;;5.53;2.30;;;;;;;39.88;35.16;96678.78;2117474;28;20453;-72
2023/08/19 11:49:03;;;;;;;4.53;1.93;;;;;;;40.33;35.14;96678.47;2118316;28;20467;-73
2023/08/19 11:50:08;;;;;;;9.83;2.27;;;;;;;40.01;35.41;96689.31;2118279;28;20515;-72
2023/08/19 11:51:11;;;;;;;7.63;2.20;;;;;;;40.19;34.62;96685.44;2116707;28;21015;-72
2023/08/19 11:52:19;;;;;;;5.47;1.80;;;;;;;40.59;34.43;96683.38;2113060;28;21185;-71
2023/08/19 11:53:22;;;;;;;5.70;1.97;;;;;;;40.09;33.56;96688.91;2114538;28;20419;-70
2023/08/19 11:54:23;;;;;;;6.10;2.07;;;;;;;39.65;33.82;96681.53;2116013;28;20434;-71
2023/08/19 11:55:28;;;;;;;5.23;2.13;;;;;;;39.61;34.05;96695.94;2117254;27;20434;-72
2023/08/19 11:56:44;;;;;;;5.07;1.93;;;;;;;40.03;33.67;96692.63;2117804;27;20457;-71
2023/08/19 11:57:47;;;;;;;6.93;2.60;;;;;;;40.41;34.56;96693.59;2118884;27;20428;-71
2023/08/19 11:58:54;;;;;;;6.70;2.80;;;;;;;40.79;33.67;96699.13;2118770;27;20417;-71
2023/08/19 11:59:56;;;;;;;4.50;2.13;;;;;;;40.66;33.42;96697.69;2118552;27;20425;-71
2023/08/19 12:01:00;;;;;;;5.17;1.57;;;;;;;40.87;33.00;96693.16;2108205;28;20450;-70
2023/08/19 12:02:07;;;;;;;7.97;2.30;;;;;;;41.41;33.07;96691.38;2111136;27;20894;-71
2023/08/19 12:03:09;;;;;;;9.97;2.23;;;;;;;40.85;32.62;96697.25;2118532;27;20445;-71
2023/08/19 12:04:15;;;;;;;3.50;2.13;;;;;;;40.94;33.09;96698.44;2117560;27;20458;-72
2023/08/19 12:05:26;;;;;;;5.23;2.10;;;;;;;40.88;33.02;96699.47;2117921;27;20430;-71
2023/08/19 12:06:31;;;;;;;9.57;3.30;;;;;;;39.60;34.39;96697.00;2116862;27;20466;-72
2023/08/19 12:07:34;;;;;;;7.27;3.00;;;;;;;39.92;34.48;96696.31;2118578;27;20944;-71